Time;durP1;ratioP1;P1;durP2;ratioP2;P2;SDS_P1;SDS_P2;PMS_P1;PMS_P2;Temp;Humidity;BMP_temperature;BMP_pressure;BME280_temperature;BME280_humidity;BME280_pressure;Samples;Min_cycle;Max_cycle;Signal;HPM_P1;HPM_P2
2022/07/25 00:02:03;;;;;;;8.93;6.97;;;;;;;16.88;79.94;94818.21;1634393;84;21309;-56
2022/07/25 00:04:31;;;;;;;8.50;7.58;;;;;;;16.77;79.89;94820.19;1663969;84;21010;-57
2022/07/25 00:07:01;;;;;;;8.23;6.95;;;;;;;16.64;80.13;94812.06;1666215;84;21066;-56
2022/07/25 00:09:30;;;;;;;9.63;7.15;;;;;;;16.58;80.57;94810.59;1681742;83;20977;-56
2022/07/25 00:11:59;;;;;;;8.08;7.28;;;;;;;16.55;80.52;94812.20;1685432;84;21017;-56
2022/07/25 00:14:28;;;;;;;7.03;6.22;;;;;;;16.47;80.44;94804.11;1672819;84;21312;-56
2022/07/25 00:16:56;;;;;;;8.50;6.70;;;;;;;16.41;80.46;94813.00;1670588;84;21081;-56
2022/07/25 00:19:26;;;;;;;7.53;6.00;;;;;;;16.33;80.51;94808.44;1653761;84;21113;-56
2022/07/25 00:21:54;;;;;;;7.55;6.60;;;;;;;16.29;80.59;94809.87;1649130;85;21048;-56
2022/07/25 00:24:22;;;;;;;12.70;6.95;;;;;;;16.23;80.22;94811.81;1686866;84;21080;-56
2022/07/25 00:26:51;;;;;;;11.85;5.75;;;;;;;16.16;80.06;94812.22;1678489;83;21250;-56
2022/07/25 00:29:18;;;;;;;7.90;5.62;;;;;;;16.12;79.91;94812.27;1655676;85;20950;-56
2022/07/25 00:31:46;;;;;;;7.10;6.28;;;;;;;16.09;79.62;94808.43;1672015;84;21471;-57
2022/07/25 00:34:15;;;;;;;6.40;5.75;;;;;;;16.06;79.41;94807.26;1644231;85;20994;-57
2022/07/25 00:36:43;;;;;;;9.85;5.80;;;;;;;15.99;79.17;94807.02;1672610;84;21089;-56
2022/07/25 00:39:12;;;;;;;5.87;5.37;;;;;;;15.91;78.90;94811.41;1649802;84;21758;-56
2022/07/25 00:41:39;;;;;;;6.58;5.95;;;;;;;15.78;78.93;94806.80;1685033;84;21466;-56
2022/07/25 00:44:07;;;;;;;6.70;6.05;;;;;;;15.67;79.36;94801.66;1676832;84;21001;-56
2022/07/25 00:46:38;;;;;;;7.83;6.25;;;;;;;15.53;80.02;94803.83;1666162;84;21025;-56
2022/07/25 00:49:06;;;;;;;6.03;5.20;;;;;;;15.48;80.44;94801.09;1684170;84;21061;-56
2022/07/25 00:51:34;;;;;;;7.47;5.72;;;;;;;15.45;80.49;94800.67;1677807;84;21429;-56
2022/07/25 00:54:02;;;;;;;6.83;5.60;;;;;;;15.42;80.82;94796.69;1681485;84;20962;-56
2022/07/25 00:56:30;;;;;;;6.03;5.42;;;;;;;15.38;80.87;94798.25;1666814;85;21017;-56
2022/07/25 00:58:57;;;;;;;7.03;5.62;;;;;;;15.30;80.90;94799.10;1646834;85;21525;-56
2022/07/25 01:01:26;;;;;;;8.35;5.75;;;;;;;15.19;81.09;94803.78;1667682;84;21029;-57
2022/07/25 01:03:53;;;;;;;6.42;5.58;;;;;;;15.12;81.32;94797.23;1674718;84;21225;-55
2022/07/25 01:06:22;;;;;;;5.95;5.35;;;;;;;15.07;81.27;94797.13;1687365;84;21005;-55
2022/07/25 01:08:52;;;;;;;7.83;5.70;;;;;;;15.03;81.49;94795.91;1659356;84;20967;-56
2022/07/25 01:11:20;;;;;;;6.42;5.83;;;;;;;14.98;81.39;94791.67;1678494;83;21447;-56
2022/07/25 01:13:49;;;;;;;6.58;5.85;;;;;;;14.91;81.53;94801.72;1664263;84;20966;-56
2022/07/25 01:16:18;;;;;;;6.45;5.60;;;;;;;14.88;81.92;94795.73;1647261;85;21494;-56
2022/07/25 01:18:46;;;;;;;7.20;5.85;;;;;;;14.81;82.03;94800.27;1669223;84;21022;-56
2022/07/25 01:21:14;;;;;;;11.08;6.75;;;;;;;14.74;82.33;94804.16;1683612;84;21083;-55
2022/07/25 01:23:43;;;;;;;7.20;6.08;;;;;;;14.71;82.65;94800.95;1686706;83;20974;-56
2022/07/25 01:26:12;;;;;;;6.47;5.70;;;;;;;14.73;83.05;94808.16;1681258;84;20998;-56
2022/07/25 01:28:40;;;;;;;6.85;5.67;;;;;;;14.71;82.95;94802.34;1667444;84;21827;-56
2022/07/25 01:31:09;;;;;;;6.87;5.87;;;;;;;14.67;82.84;94807.27;1671780;84;20974;-56
2022/07/25 01:33:38;;;;;;;9.43;7.03;;;;;;;14.65;83.13;94813.89;1659939;84;20978;-56
2022/07/25 01:36:06;;;;;;;8.05;6.72;;;;;;;14.66;83.34;94817.44;1678287;84;21026;-56
2022/07/25 01:38:34;;;;;;;7.47;6.78;;;;;;;14.67;83.78;94819.72;1677067;83;21128;-56
2022/07/25 01:41:04;;;;;;;7.67;5.75;;;;;;;14.67;83.67;94818.34;1680854;84;21095;-56
2022/07/25 01:43:32;;;;;;;6.30;5.65;;;;;;;14.63;83.15;94817.76;1668947;84;21612;-58
2022/07/25 01:46:00;;;;;;;6.80;6.03;;;;;;;14.54;83.04;94821.20;1685443;83;21073;-56
2022/07/25 01:48:29;;;;;;;9.70;6.85;;;;;;;14.49;83.24;94819.08;1675015;84;21022;-56
2022/07/25 01:50:57;;;;;;;7.08;6.33;;;;;;;14.45;83.85;94821.27;1671821;84;21073;-56
2022/07/25 01:53:25;;;;;;;7.00;5.90;;;;;;;14.41;84.22;94823.45;1687064;84;21133;-57
2022/07/25 01:55:54;;;;;;;8.93;5.95;;;;;;;14.38;84.10;94822.98;1677884;83;20999;-56
2022/07/25 01:58:22;;;;;;;6.37;5.78;;;;;;;14.28;83.85;94822.89;1658292;84;21010;-56
2022/07/25 02:00:50;;;;;;;8.70;6.30;;;;;;;14.24;84.14;94827.05;1675033;84;21514;-56
2022/07/25 02:03:31;;;;;;;7.05;6.33;;;;;;;14.19;84.33;94827.07;1668381;84;21035;-56
2022/07/25 02:06:06;;;;;;;7.45;6.03;;;;;;;14.15;84.71;94837.52;1671419;83;21222;-56
2022/07/25 02:08:34;;;;;;;6.37;5.53;;;;;;;14.09;84.45;94834.47;1662340;84;21403;-56
2022/07/25 02:11:03;;;;;;;6.83;6.22;;;;;;;14.00;84.61;94835.89;1664483;84;20957;-56
2022/07/25 02:13:32;;;;;;;9.65;6.83;;;;;;;13.96;84.97;94837.44;1660925;84;21458;-56
2022/07/25 02:16:00;;;;;;;7.15;6.35;;;;;;;13.93;85.38;94834.83;1659982;84;21438;-56
2022/07/25 02:18:28;;;;;;;10.23;6.62;;;;;;;13.92;85.50;94834.67;1665147;84;21063;-56
2022/07/25 02:20:56;;;;;;;6.92;6.22;;;;;;;13.87;85.34;94832.55;1658957;84;20950;-56
2022/07/25 02:23:24;;;;;;;9.13;6.28;;;;;;;13.83;85.61;94833.34;1667168;84;21048;-56
2022/07/25 02:25:53;;;;;;;12.13;6.30;;;;;;;13.82;85.94;94840.85;1668914;84;20978;-56
2022/07/25 02:28:22;;;;;;;7.28;6.45;;;;;;;13.83;86.44;94833.34;1643354;84;20970;-56
2022/07/25 02:30:51;;;;;;;11.53;6.87;;;;;;;13.85;86.50;94833.64;1634496;86;21248;-56
2022/07/25 02:33:19;;;;;;;8.50;6.50;;;;;;;13.82;86.39;94827.02;1656702;84;21059;-56
2022/07/25 02:35:47;;;;;;;10.88;6.10;;;;;;;13.78;86.33;94832.59;1666755;84;21013;-56
2022/07/25 02:38:18;;;;;;;7.25;6.15;;;;;;;13.77;86.36;94826.88;1630187;85;21010;-56
2022/07/25 02:40:48;;;;;;;7.95;6.80;;;;;;;13.77;86.40;94828.27;1665194;83;21030;-57
2022/07/25 02:43:16;;;;;;;9.85;7.15;;;;;;;13.76;86.66;94819.82;1674403;84;21894;-56
2022/07/25 02:45:44;;;;;;;8.18;6.25;;;;;;;13.76;87.15;94830.28;1641007;84;21017;-57
2022/07/25 02:48:12;;;;;;;7.00;6.08;;;;;;;13.73;86.71;94827.06;1672109;84;20978;-57
2022/07/25 02:50:40;;;;;;;8.78;5.97;;;;;;;13.66;86.33;94826.63;1675047;84;20974;-56
2022/07/25 02:53:09;;;;;;;8.28;6.45;;;;;;;13.62;86.24;94820.50;1667454;84;21005;-56
2022/07/25 02:55:37;;;;;;;7.45;6.67;;;;;;;13.59;86.31;94818.66;1657014;85;21147;-57
2022/07/25 02:58:05;;;;;;;9.65;6.40;;;;;;;13.54;86.85;94817.89;1659846;84;21576;-57
2022/07/25 03:00:34;;;;;;;10.43;6.28;;;;;;;13.47;87.24;94816.20;1639745;84;21029;-56
2022/07/25 03:03:02;;;;;;;6.60;6.00;;;;;;;13.43;87.39;94810.08;1674031;84;21501;-55
2022/07/25 03:05:31;;;;;;;7.35;6.45;;;;;;;13.43;87.73;94816.23;1677539;83;20978;-55
2022/07/25 03:08:01;;;;;;;9.03;5.97;;;;;;;13.43;87.94;94819.00;1661175;84;21959;-56
2022/07/25 03:10:30;;;;;;;10.00;6.05;;;;;;;13.40;87.47;94824.83;1647109;84;21094;-55
2022/07/25 03:12:59;;;;;;;9.00;6.00;;;;;;;13.34;87.22;94823.14;1671606;84;21006;-55
2022/07/25 03:15:27;;;;;;;6.42;5.72;;;;;;;13.29;87.45;94823.77;1655501;84;21038;-55
2022/07/25 03:17:55;;;;;;;12.28;7.12;;;;;;;13.34;87.42;94831.44;1662200;84;21084;-56
2022/07/25 03:20:24;;;;;;;32.95;18.62;;;;;;;13.35;87.73;94828.83;1661781;84;21293;-56
2022/07/25 03:22:53;;;;;;;36.42;20.52;;;;;;;13.38;88.10;94833.42;1668552;84;21441;-56
2022/07/25 03:25:21;;;;;;;76.33;37.88;;;;;;;13.37;87.61;94829.91;1666953;84;21599;-56
2022/07/25 03:27:50;;;;;;;77.22;37.42;;;;;;;13.37;87.29;94831.89;1654953;84;20954;-56
2022/07/25 03:30:17;;;;;;;39.75;22.10;;;;;;;13.38;87.40;94823.14;1671952;83;21038;-56
2022/07/25 03:32:46;;;;;;;20.65;12.05;;;;;;;13.43;87.42;94826.66;1677619;84;21026;-57
2022/07/25 03:35:15;;;;;;;19.42;12.78;;;;;;;13.45;86.93;94819.30;1684043;83;21575;-57
2022/07/25 03:37:43;;;;;;;19.00;12.73;;;;;;;13.39;86.40;94830.20;1651280;86;21014;-56
2022/07/25 03:40:14;;;;;;;13.50;9.68;;;;;;;13.35;86.60;94828.83;1675843;84;21498;-56
2022/07/25 03:42:43;;;;;;;13.55;8.05;;;;;;;13.42;87.32;94824.38;1688036;84;21034;-57
2022/07/25 03:45:11;;;;;;;8.95;7.87;;;;;;;13.54;87.36;94820.66;1687205;84;21764;-57
2022/07/25 03:47:38;;;;;;;9.85;7.67;;;;;;;13.66;87.28;94821.09;1682719;83;21077;-57
2022/07/25 03:50:07;;;;;;;10.00;6.65;;;;;;;13.77;87.14;94818.59;1640156;85;20993;-57
2022/07/25 03:52:37;;;;;;;9.68;6.87;;;;;;;14.01;87.34;94826.36;1663689;84;21549;-56
2022/07/25 03:55:09;;;;;;;7.28;5.67;;;;;;;15.34;87.78;94824.02;1662641;84;21072;-56
2022/07/25 03:57:38;;;;;;;10.85;5.83;;;;;;;16.61;81.81;94817.98;1684499;84;21181;-56
2022/07/25 04:00:08;;;;;;;7.30;5.85;;;;;;;16.84;78.13;94824.58;1676783;83;21505;-56
2022/07/25 04:02:38;;;;;;;6.85;6.15;;;;;;;16.69;76.17;94818.34;1690307;83;21019;-56
2022/07/25 04:05:07;;;;;;;11.28;7.28;;;;;;;16.39;75.43;94821.05;1654601;84;21031;-56
2022/07/25 04:07:37;;;;;;;7.40;6.47;;;;;;;16.10;75.71;94821.06;1664196;84;21518;-56
2022/07/25 04:10:06;;;;;;;9.48;7.05;;;;;;;16.04;76.23;94818.05;1668971;84;21181;-57
2022/07/25 04:12:34;;;;;;;9.38;6.45;;;;;;;16.20;76.17;94817.55;1680319;83;21002;-56
2022/07/25 04:15:03;;;;;;;12.35;7.00;;;;;;;16.35;75.67;94816.33;1680014;84;21089;-56
2022/07/25 04:17:30;;;;;;;11.78;6.70;;;;;;;16.36;75.09;94816.47;1649967;85;20981;-56
2022/07/25 04:19:59;;;;;;;8.85;6.85;;;;;;;16.26;75.06;94813.62;1662422;84;21026;-56
2022/07/25 04:22:29;;;;;;;8.40;7.25;;;;;;;16.08;75.18;94811.06;1663339;84;21617;-55
2022/07/25 04:24:59;;;;;;;8.35;6.47;;;;;;;15.92;75.70;94806.01;1670395;83;21025;-59
2022/07/25 04:27:26;;;;;;;7.08;6.33;;;;;;;15.79;76.16;94804.78;1662409;84;21109;-56
2022/07/25 04:29:55;;;;;;;8.00;6.15;;;;;;;15.72;76.54;94803.15;1662430;84;21498;-56
2022/07/25 04:32:23;;;;;;;7.15;6.37;;;;;;;15.64;76.71;94793.70;1630137;84;21495;-58
2022/07/25 04:34:54;;;;;;;6.17;5.58;;;;;;;15.61;76.94;94801.59;1640396;85;21232;-57
2022/07/25 04:37:22;;;;;;;11.63;6.80;;;;;;;15.58;77.25;94799.75;1654330;84;20959;-56
2022/07/25 04:39:51;;;;;;;8.63;5.37;;;;;;;15.60;77.38;94800.06;1687053;84;21037;-58
2022/07/25 04:42:20;;;;;;;9.58;6.05;;;;;;;15.64;77.36;94798.46;1680985;83;20994;-58
2022/07/25 04:44:49;;;;;;;9.40;6.35;;;;;;;15.79;77.58;94800.62;1661529;84;21501;-55
2022/07/25 04:47:18;;;;;;;6.95;5.50;;;;;;;15.99;77.03;94795.14;1668392;84;21257;-56
2022/07/25 04:49:47;;;;;;;15.30;6.80;;;;;;;16.08;76.40;94794.41;1671712;84;21050;-57
2022/07/25 04:52:15;;;;;;;9.48;6.87;;;;;;;16.04;76.16;94794.46;1668867;84;21062;-57
2022/07/25 04:54:43;;;;;;;20.05;6.60;;;;;;;15.97;76.30;94794.25;1641013;85;21482;-56
2022/07/25 04:57:11;;;;;;;89.97;10.00;;;;;;;15.93;76.60;94790.89;1671087;85;21018;-57
2022/07/25 04:59:40;;;;;;;7.45;6.00;;;;;;;15.92;76.86;94791.39;1672327;84;21907;-56
2022/07/25 05:02:08;;;;;;;6.92;6.15;;;;;;;15.97;77.28;94794.86;1664295;84;21069;-56
2022/07/25 05:04:37;;;;;;;13.55;6.90;;;;;;;16.07;77.40;94787.33;1679108;83;21017;-56
2022/07/25 05:07:04;;;;;;;9.48;6.80;;;;;;;16.18;77.03;94791.68;1658880;84;21022;-56
2022/07/25 05:09:34;;;;;;;9.40;6.87;;;;;;;16.25;76.86;94789.13;1673749;83;20978;-57
2022/07/25 05:12:03;;;;;;;7.95;6.15;;;;;;;16.31;76.37;94793.49;1654331;84;21090;-57
2022/07/25 05:14:31;;;;;;;6.80;5.58;;;;;;;16.36;76.22;94777.59;1657953;84;20963;-56
2022/07/25 05:17:01;;;;;;;12.65;5.97;;;;;;;16.44;75.97;94788.42;1660873;84;21010;-57
2022/07/25 05:19:30;;;;;;;11.80;6.85;;;;;;;16.52;76.05;94779.84;1667519;84;21027;-56
2022/07/25 05:21:59;;;;;;;9.38;6.12;;;;;;;16.60;76.22;94779.56;1681575;84;21423;-56
2022/07/25 05:24:27;;;;;;;8.63;6.30;;;;;;;16.72;76.07;94780.61;1685458;84;21066;-57
2022/07/25 05:26:55;;;;;;;8.23;6.08;;;;;;;16.82;75.95;94773.67;1664811;85;21524;-56
2022/07/25 05:29:24;;;;;;;9.80;6.47;;;;;;;16.92;75.51;94776.43;1661457;84;21015;-56
2022/07/25 05:31:53;;;;;;;10.00;5.75;;;;;;;17.01;75.23;94772.13;1661370;84;21454;-57
2022/07/25 05:34:21;;;;;;;16.00;6.80;;;;;;;17.17;75.14;94766.61;1651580;84;21462;-56
2022/07/25 05:36:49;;;;;;;14.60;6.47;;;;;;;17.30;74.95;94765.63;1673549;84;21236;-57
2022/07/25 05:39:18;;;;;;;11.38;7.17;;;;;;;17.44;74.76;94770.36;1650285;85;21033;-56
2022/07/25 05:41:47;;;;;;;11.33;7.78;;;;;;;17.54;74.29;94764.76;1676989;84;21059;-56
2022/07/25 05:44:15;;;;;;;8.65;6.67;;;;;;;17.59;73.74;94769.60;1648070;84;21625;-59
2022/07/25 05:46:43;;;;;;;15.30;7.83;;;;;;;17.63;73.59;94765.99;1690798;82;21880;-56
2022/07/25 05:49:12;;;;;;;8.88;6.37;;;;;;;17.69;73.71;94762.63;1688174;82;21930;-56
2022/07/25 05:51:40;;;;;;;7.22;5.85;;;;;;;17.77;72.86;94763.70;1673495;82;21126;-57
2022/07/25 05:54:07;;;;;;;11.88;6.58;;;;;;;17.77;72.11;94759.52;1698334;82;21001;-57
2022/07/25 05:56:34;;;;;;;8.63;6.00;;;;;;;17.76;71.97;94757.38;1661536;83;21136;-59
2022/07/25 05:59:02;;;;;;;13.95;6.62;;;;;;;17.80;71.62;94754.39;1675244;82;21112;-60
2022/07/25 06:01:30;;;;;;;11.78;7.17;;;;;;;17.85;71.40;94750.23;1688092;82;21267;-67
2022/07/25 06:03:59;;;;;;;6.58;5.80;;;;;;;17.94;71.34;94750.69;1678659;83;21077;-55
2022/07/25 06:06:27;;;;;;;14.87;6.42;;;;;;;18.08;70.80;94749.78;1666467;82;21037;-59
2022/07/25 06:08:54;;;;;;;11.20;5.70;;;;;;;18.18;69.96;94748.35;1677717;82;21287;-61
2022/07/25 06:11:21;;;;;;;11.78;6.47;;;;;;;18.24;69.85;94749.27;1677675;82;21063;-60
2022/07/25 06:13:49;;;;;;;9.50;5.47;;;;;;;18.30;69.59;94750.09;1642393;85;21164;-58
2022/07/25 06:16:17;;;;;;;19.98;18.00;;;;;;;18.36;69.54;94748.13;1607394;86;21203;-58
2022/07/25 06:18:45;;;;;;;14.20;6.55;;;;;;;18.42;69.13;94744.73;1675781;82;21619;-59
2022/07/25 06:21:14;;;;;;;6.78;6.08;;;;;;;18.51;68.67;94744.55;1685151;83;21030;-59
2022/07/25 06:23:43;;;;;;;7.45;5.97;;;;;;;18.62;68.42;94736.23;1687473;82;21042;-58
2022/07/25 06:26:11;;;;;;;8.50;6.22;;;;;;;18.73;68.30;94733.52;1691013;82;21159;-57
2022/07/25 06:28:38;;;;;;;11.78;5.45;;;;;;;18.85;68.01;94733.67;1681781;83;21017;-59
2022/07/25 06:31:07;;;;;;;9.15;6.37;;;;;;;18.95;67.91;94723.84;1688054;83;20982;-58
2022/07/25 06:33:36;;;;;;;9.58;6.62;;;;;;;19.06;67.65;94729.47;1694148;82;21060;-58
2022/07/25 06:36:05;;;;;;;14.38;6.67;;;;;;;19.17;67.50;94718.36;1659566;83;21025;-57
2022/07/25 06:38:33;;;;;;;8.65;5.45;;;;;;;19.29;67.00;94723.33;1667874;83;21113;-60
2022/07/25 06:41:01;;;;;;;8.55;4.83;;;;;;;19.45;66.73;94721.98;1674804;83;20985;-58
2022/07/25 06:43:30;;;;;;;11.38;5.47;;;;;;;19.63;65.95;94720.10;1695348;83;21070;-58
2022/07/25 06:45:57;;;;;;;12.20;6.15;;;;;;;19.78;65.27;94717.80;1680964;82;21009;-58
2022/07/25 06:48:24;;;;;;;10.55;5.70;;;;;;;19.93;64.72;94716.17;1691361;82;21890;-59
2022/07/25 06:50:52;;;;;;;11.63;6.10;;;;;;;20.02;63.59;94713.92;1686919;82;21377;-59
2022/07/25 06:53:20;;;;;;;8.90;5.72;;;;;;;20.13;62.59;94708.30;1686432;83;21071;-62
2022/07/25 06:55:48;;;;;;;5.70;4.87;;;;;;;20.23;62.13;94703.98;1681726;82;21088;-61
2022/07/25 06:58:16;;;;;;;16.62;6.30;;;;;;;20.34;61.47;94699.78;1673290;82;21522;-58
2022/07/25 07:00:45;;;;;;;10.18;5.05;;;;;;;20.44;60.30;94699.00;1702141;82;21143;-58
2022/07/25 07:03:13;;;;;;;7.15;4.75;;;;;;;20.56;60.22;94694.13;1694862;82;21432;-60
2022/07/25 07:05:42;;;;;;;6.53;4.67;;;;;;;20.69;59.21;94693.70;1673611;83;21289;-57
2022/07/25 07:08:10;;;;;;;8.28;4.78;;;;;;;20.74;58.55;94693.56;1659184;83;21075;-59
2022/07/25 07:10:39;;;;;;;4.90;3.90;;;;;;;20.79;58.63;94687.95;1688905;83;21078;-58
2022/07/25 07:13:11;;;;;;;6.95;4.42;;;;;;;20.91;58.79;94691.49;1667337;82;21071;-58
2022/07/25 07:15:48;;;;;;;5.58;4.15;;;;;;;21.04;57.53;94697.27;1670579;82;21143;-57
2022/07/25 07:18:16;;;;;;;6.25;4.17;;;;;;;21.12;55.87;94691.27;1687166;83;21124;-58
2022/07/25 07:20:46;;;;;;;5.20;4.08;;;;;;;21.15;55.46;94683.23;1682622;83;21612;-56
2022/07/25 07:23:14;;;;;;;7.08;4.30;;;;;;;21.19;55.18;94678.11;1689160;82;21026;-56
2022/07/25 07:25:48;;;;;;;6.92;4.50;;;;;;;21.24;55.23;94673.11;1685836;83;21502;-58
2022/07/25 07:28:22;;;;;;;10.60;4.70;;;;;;;21.29;55.07;94677.94;1676565;82;21116;-60
2022/07/25 07:30:49;;;;;;;6.72;3.98;;;;;;;21.34;54.78;94683.52;1646387;85;21588;-60
2022/07/25 07:33:17;;;;;;;6.12;4.08;;;;;;;21.38;54.45;94681.81;1646824;84;21157;-59
2022/07/25 07:35:46;;;;;;;5.53;4.33;;;;;;;21.43;55.02;94678.20;1649735;84;21513;-56
2022/07/25 07:38:14;;;;;;;7.92;4.08;;;;;;;21.47;54.59;94675.91;1679767;82;21060;-59
2022/07/25 07:40:42;;;;;;;5.33;4.15;;;;;;;21.51;54.63;94677.79;1687232;82;21245;-54
2022/07/25 07:43:09;;;;;;;15.35;11.10;;;;;;;21.57;54.10;94674.30;1662735;84;21305;-57
2022/07/25 07:45:37;;;;;;;5.40;4.15;;;;;;;21.63;54.40;94670.22;1688220;83;21083;-59
2022/07/25 07:48:06;;;;;;;5.55;4.47;;;;;;;21.72;54.03;94664.30;1656043;83;21056;-60
2022/07/25 07:50:36;;;;;;;4.10;3.65;;;;;;;21.85;53.79;94670.69;1666618;83;21049;-57
2022/07/25 07:53:05;;;;;;;7.42;4.10;;;;;;;21.94;53.45;94667.54;1668524;82;21123;-59
2022/07/25 07:55:45;;;;;;;6.87;4.28;;;;;;;22.04;53.72;94667.45;1675627;81;21511;-58
2022/07/25 07:58:15;;;;;;;4.97;3.90;;;;;;;22.16;53.37;94658.30;1664454;83;21008;-59
2022/07/25 08:00:47;;;;;;;11.80;3.65;;;;;;;22.32;52.87;94665.13;1682200;82;21025;-57
2022/07/25 08:03:20;;;;;;;7.25;3.75;;;;;;;22.41;53.13;94657.05;1707259;82;21027;-57
2022/07/25 08:05:50;;;;;;;6.17;3.98;;;;;;;22.52;53.65;94656.30;1700953;82;21185;-60
2022/07/25 08:08:18;;;;;;;8.05;4.08;;;;;;;22.64;51.54;94652.06;1652401;84;21090;-60
2022/07/25 08:10:47;;;;;;;10.95;4.00;;;;;;;22.72;52.21;94654.41;1620974;86;21087;-57
2022/07/25 08:13:19;;;;;;;7.42;3.40;;;;;;;22.84;51.40;94646.61;1630920;85;21065;-59
2022/07/25 08:15:50;;;;;;;9.70;4.05;;;;;;;22.95;51.20;94643.02;1625730;86;21197;-56
2022/07/25 08:18:18;;;;;;;6.20;3.67;;;;;;;23.00;50.48;94640.03;1618975;86;21377;-60
2022/07/25 08:20:46;;;;;;;4.75;3.37;;;;;;;23.03;50.37;94642.52;1663741;84;21073;-59
2022/07/25 08:23:14;;;;;;;5.58;3.37;;;;;;;23.12;50.81;94642.81;1682068;83;21506;-58
2022/07/25 08:25:41;;;;;;;7.17;3.58;;;;;;;23.22;49.10;94646.11;1683805;83;21060;-57
2022/07/25 08:28:10;;;;;;;5.33;3.67;;;;;;;23.25;48.50;94639.46;1680700;82;21774;-60
2022/07/25 08:30:38;;;;;;;5.95;3.25;;;;;;;23.30;48.01;94638.61;1647861;82;21088;-58
2022/07/25 08:33:09;;;;;;;3.60;3.30;;;;;;;23.38;47.68;94644.38;1678433;83;21199;-58
2022/07/25 08:35:38;;;;;;;6.65;3.42;;;;;;;23.42;47.16;94644.16;1705847;82;21163;-57
2022/07/25 08:38:06;;;;;;;3.47;3.17;;;;;;;23.43;48.09;94640.06;1682543;82;21025;-58
2022/07/25 08:40:37;;;;;;;3.80;3.05;;;;;;;23.51;48.12;94633.95;1671146;84;21053;-57
2022/07/25 08:43:05;;;;;;;3.92;3.40;;;;;;;23.60;47.64;94636.35;1674822;83;21557;-56
2022/07/25 08:45:33;;;;;;;12.23;6.60;;;;;;;23.61;47.06;94641.34;1691256;82;21118;-56
2022/07/25 08:48:02;;;;;;;7.00;3.85;;;;;;;23.60;47.28;94627.92;1685267;83;21068;-57
2022/07/25 08:50:30;;;;;;;6.47;3.62;;;;;;;23.67;47.90;94628.72;1678462;83;21302;-55
2022/07/25 08:52:58;;;;;;;6.95;3.33;;;;;;;23.83;47.38;94636.16;1684102;82;21405;-57
2022/07/25 08:55:27;;;;;;;5.12;3.15;;;;;;;23.95;47.00;94630.45;1693757;82;21238;-57
2022/07/25 08:57:55;;;;;;;4.17;3.55;;;;;;;24.04;46.32;94632.86;1667635;83;21938;-60
2022/07/25 09:00:30;;;;;;;7.58;3.80;;;;;;;24.09;46.20;94624.97;1680482;82;21083;-57
2022/07/25 09:03:01;;;;;;;4.83;2.90;;;;;;;24.13;46.34;94627.58;1683954;81;21131;-56
2022/07/25 09:05:31;;;;;;;4.55;3.12;;;;;;;24.25;47.80;94629.54;1697153;82;21086;-56
2022/07/25 09:08:11;;;;;;;4.40;3.20;;;;;;;24.44;47.77;94631.61;1668644;83;21277;-59
2022/07/25 09:10:41;;;;;;;4.25;2.95;;;;;;;24.65;47.61;94630.47;1688882;82;21418;-58
2022/07/25 09:13:12;;;;;;;5.28;2.67;;;;;;;24.82;46.34;94630.12;1695900;82;21033;-58
2022/07/25 09:15:51;;;;;;;4.97;2.80;;;;;;;24.97;45.91;94633.14;1687237;82;21570;-60
2022/07/25 09:18:24;;;;;;;5.33;3.05;;;;;;;25.05;44.07;94633.98;1686998;82;21053;-57
2022/07/25 09:20:57;;;;;;;2.87;2.45;;;;;;;25.09;43.65;94637.24;1696843;82;21986;-59
2022/07/25 09:23:29;;;;;;;;;;;;;;;25.08;43.37;94631.51;1668518;82;21217;-55
2022/07/25 09:26:13;;;;;;;5.28;3.00;;;;;;;25.10;42.99;94635.94;1688053;83;20392;-60
2022/07/25 09:28:46;;;;;;;4.92;3.12;;;;;;;25.11;43.07;94637.45;1685473;82;21082;-57
2022/07/25 09:31:16;;;;;;;2.42;2.10;;;;;;;25.15;43.71;94632.98;1700263;82;21022;-62
2022/07/25 09:33:50;;;;;;;5.40;2.85;;;;;;;25.24;43.34;94626.17;1668215;83;22194;-56
2022/07/25 09:36:17;;;;;;;3.10;2.60;;;;;;;25.28;44.48;94629.43;1677732;82;21105;-57
2022/07/25 09:38:55;;;;;;;6.78;3.12;;;;;;;25.41;44.39;94627.96;1686346;82;21158;-57
2022/07/25 09:41:36;;;;;;;3.62;2.52;;;;;;;25.51;44.01;94622.73;1674798;82;21113;-56
2022/07/25 09:44:16;;;;;;;4.90;3.02;;;;;;;25.62;43.63;94625.30;1648253;84;21068;-59
2022/07/25 09:46:44;;;;;;;3.87;2.65;;;;;;;25.68;43.99;94618.13;1683538;83;21936;-57
2022/07/25 09:49:14;;;;;;;8.30;6.37;;;;;;;25.73;43.65;94620.81;1682768;82;21017;-58
2022/07/25 09:51:42;;;;;;;20.30;3.45;;;;;;;25.88;43.65;94615.99;1672924;83;21582;-57
2022/07/25 09:54:11;;;;;;;5.72;2.98;;;;;;;26.02;43.60;94617.55;1708636;83;21084;-56
2022/07/25 09:56:40;;;;;;;3.80;3.30;;;;;;;26.13;44.11;94617.91;1687510;82;21722;-57
2022/07/25 09:59:07;;;;;;;4.70;2.92;;;;;;;26.23;44.90;94622.51;1702283;82;21471;-64
2022/07/25 10:01:40;;;;;;;5.87;3.00;;;;;;;26.35;45.28;94618.73;1692196;81;21050;-58
2022/07/25 10:04:28;;;;;;;6.87;3.75;;;;;;;26.46;42.87;94609.98;1671445;84;21029;-63
2022/07/25 10:07:09;;;;;;;4.62;2.80;;;;;;;26.53;43.41;94609.30;1693811;82;21650;-55
2022/07/25 10:09:45;;;;;;;4.85;3.17;;;;;;;26.72;43.98;94614.03;1695168;83;21124;-59
2022/07/25 10:12:20;;;;;;;4.97;3.15;;;;;;;26.80;43.67;94609.94;1680010;82;21093;-58
2022/07/25 10:15:10;;;;;;;4.75;3.20;;;;;;;26.86;44.62;94607.70;1629790;84;21158;-59
2022/07/25 10:17:40;;;;;;;4.62;3.12;;;;;;;26.99;43.41;94604.77;1665825;83;21128;-65
2022/07/25 10:20:09;;;;;;;3.15;2.50;;;;;;;27.14;43.46;94599.86;1685625;82;21032;-59
2022/07/25 10:22:43;;;;;;;4.12;3.47;;;;;;;27.27;42.09;94594.08;1698041;83;21121;-60
2022/07/25 10:25:13;;;;;;;5.00;3.85;;;;;;;27.38;42.15;94601.55;1683069;82;21071;-58
2022/07/25 10:27:50;;;;;;;4.17;3.30;;;;;;;27.54;43.29;94596.05;1684902;82;21091;-63
2022/07/25 10:30:23;;;;;;;8.85;3.27;;;;;;;27.77;42.06;94595.45;1663658;83;21659;-58
2022/07/25 10:33:04;;;;;;;4.72;3.30;;;;;;;27.98;42.26;94592.56;1668183;83;21149;-57
2022/07/25 10:35:31;;;;;;;7.40;3.92;;;;;;;28.19;41.60;94588.14;1683645;82;21202;-63
2022/07/25 10:38:03;;;;;;;3.50;2.98;;;;;;;28.43;41.04;94589.73;1694740;82;21029;-57
2022/07/25 10:40:42;;;;;;;3.40;3.10;;;;;;;28.67;40.87;94584.14;1673497;82;21068;-57
2022/07/25 10:43:14;;;;;;;3.50;3.10;;;;;;;28.89;39.61;94589.02;1675195;82;21089;-59
2022/07/25 10:45:50;;;;;;;6.35;3.25;;;;;;;29.08;40.69;94586.50;1691986;82;21041;-57
2022/07/25 10:48:25;;;;;;;8.55;3.55;;;;;;;29.31;38.56;94585.77;1688578;83;21025;-59
2022/07/25 10:51:00;;;;;;;3.52;3.22;;;;;;;29.54;38.10;94580.75;1702248;82;21137;-59
2022/07/25 10:53:38;;;;;;;8.35;3.50;;;;;;;29.71;38.05;94580.84;1685992;84;21085;-58
2022/07/25 10:56:19;;;;;;;4.97;3.10;;;;;;;29.87;39.10;94581.58;1671877;83;21143;-58
2022/07/25 10:58:58;;;;;;;6.70;2.98;;;;;;;30.07;37.63;94563.48;1667721;83;21158;-59
2022/07/25 11:01:30;;;;;;;3.40;3.10;;;;;;;30.15;37.35;94572.03;1705584;82;21099;-56
2022/07/25 11:04:04;;;;;;;3.52;2.98;;;;;;;30.36;38.47;94569.57;1685709;83;22278;-56
2022/07/25 11:06:37;;;;;;;4.05;2.85;;;;;;;30.67;37.42;94567.98;1682794;83;21523;-58
2022/07/25 11:09:23;;;;;;;6.03;3.10;;;;;;;30.83;36.19;94567.92;1665876;84;21130;-63
2022/07/25 11:11:52;;;;;;;4.67;3.22;;;;;;;30.99;35.52;94564.23;1615243;85;20953;-60
2022/07/25 11:14:32;;;;;;;6.47;3.33;;;;;;;31.07;35.45;94562.80;1681271;83;21060;-59
2022/07/25 11:17:22;;;;;;;5.65;3.30;;;;;;;31.23;35.32;94559.89;1683850;83;21519;-61
2022/07/25 11:20:00;;;;;;;4.25;2.77;;;;;;;31.49;34.77;94560.62;1667950;83;21198;-59
2022/07/25 11:22:28;;;;;;;7.42;2.95;;;;;;;31.78;33.97;94550.16;1684916;82;21501;-62
2022/07/25 11:24:56;;;;;;;4.78;2.83;;;;;;;31.88;33.24;94550.21;1694671;82;21437;-58
2022/07/25 11:27:30;;;;;;;7.25;3.10;;;;;;;32.00;33.91;94554.09;1684169;83;21067;-54
2022/07/25 11:30:16;;;;;;;6.50;2.75;;;;;;;32.16;33.78;94551.75;1687513;82;21254;-60
2022/07/25 11:32:50;;;;;;;4.83;2.80;;;;;;;32.23;33.52;94544.54;1687196;82;21091;-58
2022/07/25 11:35:21;;;;;;;3.72;2.22;;;;;;;32.64;33.52;94541.27;1678718;82;21861;-60
2022/07/25 11:37:50;;;;;;;4.28;2.62;;;;;;;33.02;32.46;94540.67;1675411;82;21591;-60
2022/07/25 11:40:19;;;;;;;5.50;2.42;;;;;;;33.23;32.59;94534.38;1672181;82;21056;-61
2022/07/25 11:42:50;;;;;;;5.17;2.87;;;;;;;33.47;30.96;94537.59;1692907;82;21111;-62
2022/07/25 11:45:28;;;;;;;4.12;2.52;;;;;;;33.68;32.28;94531.98;1695988;82;21130;-62